sensor_id;sensor_type;location;lat;lon;timestamp;temperature;humidity
14020;DHT22;7085;51.428;6.796;2022-08-03T00:01:01;21.00;99.90
14020;DHT22;7085;51.428;6.796;2022-08-03T00:03:28;21.00;99.90
14020;DHT22;7085;51.428;6.796;2022-08-03T00:08:23;21.00;99.90
14020;DHT22;7085;51.428;6.796;2022-08-03T00:18:11;21.00;99.90
14020;DHT22;7085;51.428;6.796;2022-08-03T00:25:35;20.90;99.90
14020;DHT22;7085;51.428;6.796;2022-08-03T00:28:03;20.90;99.90
14020;DHT22;7085;51.428;6.796;2022-08-03T00:30:30;20.80;99.90
14020;DHT22;7085;51.428;6.796;2022-08-03T00:40:19;20.60;99.90
14020;DHT22;7085;51.428;6.796;2022-08-03T00:42:50;20.70;99.90
14020;DHT22;7085;51.428;6.796;2022-08-03T00:45:18;20.60;99.90
14020;DHT22;7085;51.428;6.796;2022-08-03T00:50:13;20.50;99.90
14020;DHT22;7085;51.428;6.796;2022-08-03T00:52:40;20.60;99.90
14020;DHT22;7085;51.428;6.796;2022-08-03T00:55:08;20.60;99.90
14020;DHT22;7085;51.428;6.796;2022-08-03T00:57:34;20.60;99.90
14020;DHT22;7085;51.428;6.796;2022-08-03T01:00:06;20.60;99.90
14020;DHT22;7085;51.428;6.796;2022-08-03T01:05:01;20.60;99.90
14020;DHT22;7085;51.428;6.796;2022-08-03T01:07:36;20.60;99.90
14020;DHT22;7085;51.428;6.796;2022-08-03T01:10:12;20.60;99.90
14020;DHT22;7085;51.428;6.796;2022-08-03T01:12:44;20.50;99.90
14020;DHT22;7085;51.428;6.796;2022-08-03T01:15:22;20.50;99.90
14020;DHT22;7085;51.428;6.796;2022-08-03T01:17:55;20.40;99.90
14020;DHT22;7085;51.428;6.796;2022-08-03T01:20:24;20.50;99.90
14020;DHT22;7085;51.428;6.796;2022-08-03T01:23:09;20.40;99.90
14020;DHT22;7085;51.428;6.796;2022-08-03T01:25:49;20.30;99.90
14020;DHT22;7085;51.428;6.796;2022-08-03T01:28:40;20.30;99.90
14020;DHT22;7085;51.428;6.796;2022-08-03T01:31:15;20.20;99.90
14020;DHT22;7085;51.428;6.796;2022-08-03T01:33:48;20.20;99.90
14020;DHT22;7085;51.428;6.796;2022-08-03T01:36:20;20.20;99.90
14020;DHT22;7085;51.428;6.796;2022-08-03T01:38:51;20.10;99.90
14020;DHT22;7085;51.428;6.796;2022-08-03T01:41:23;20.00;99.90
14020;DHT22;7085;51.428;6.796;2022-08-03T01:43:52;20.00;99.90
14020;DHT22;7085;51.428;6.796;2022-08-03T01:46:22;19.90;99.90
14020;DHT22;7085;51.428;6.796;2022-08-03T01:48:50;19.90;99.90
14020;DHT22;7085;51.428;6.796;2022-08-03T01:51:18;19.90;99.90
14020;DHT22;7085;51.428;6.796;2022-08-03T01:53:47;19.80;99.90
14020;DHT22;7085;51.428;6.796;2022-08-03T01:56:16;19.90;99.90
14020;DHT22;7085;51.428;6.796;2022-08-03T01:58:44;19.90;99.90
14020;DHT22;7085;51.428;6.796;2022-08-03T02:01:11;19.90;99.90
14020;DHT22;7085;51.428;6.796;2022-08-03T02:03:42;19.90;99.90
14020;DHT22;7085;51.428;6.796;2022-08-03T02:06:11;19.90;99.90
14020;DHT22;7085;51.428;6.796;2022-08-03T02:08:39;19.80;99.90
14020;DHT22;7085;51.428;6.796;2022-08-03T02:13:34;19.80;99.90
14020;DHT22;7085;51.428;6.796;2022-08-03T02:16:02;19.80;99.90
14020;DHT22;7085;51.428;6.796;2022-08-03T02:18:30;19.80;99.90
14020;DHT22;7085;51.428;6.796;2022-08-03T02:20:59;19.80;99.90
14020;DHT22;7085;51.428;6.796;2022-08-03T02:26:00;20.00;99.90
14020;DHT22;7085;51.428;6.796;2022-08-03T02:28:30;20.00;99.90
14020;DHT22;7085;51.428;6.796;2022-08-03T02:30:57;19.40;99.90
14020;DHT22;7085;51.428;6.796;2022-08-03T02:33:32;19.90;99.90
14020;DHT22;7085;51.428;6.796;2022-08-03T02:36:02;19.90;99.90
14020;DHT22;7085;51.428;6.796;2022-08-03T02:38:32;19.90;99.90
14020;DHT22;7085;51.428;6.796;2022-08-03T02:41:00;19.80;99.90
14020;DHT22;7085;51.428;6.796;2022-08-03T02:43:29;19.90;99.90
14020;DHT22;7085;51.428;6.796;2022-08-03T02:45:57;19.80;99.90
14020;DHT22;7085;51.428;6.796;2022-08-03T02:48:26;19.80;99.90
14020;DHT22;7085;51.428;6.796;2022-08-03T02:50:57;19.80;99.90
14020;DHT22;7085;51.428;6.796;2022-08-03T02:53:25;19.80;99.90
14020;DHT22;7085;51.428;6.796;2022-08-03T02:55:53;19.90;99.90
14020;DHT22;7085;51.428;6.796;2022-08-03T02:58:22;19.80;99.90
14020;DHT22;7085;51.428;6.796;2022-08-03T03:00:50;19.80;99.90
14020;DHT22;7085;51.428;6.796;2022-08-03T03:03:18;19.80;99.90
14020;DHT22;7085;51.428;6.796;2022-08-03T03:05:45;19.80;99.90
14020;DHT22;7085;51.428;6.796;2022-08-03T03:08:13;19.80;99.90
14020;DHT22;7085;51.428;6.796;2022-08-03T03:10:42;19.70;99.90
14020;DHT22;7085;51.428;6.796;2022-08-03T03:13:09;19.70;99.90
14020;DHT22;7085;51.428;6.796;2022-08-03T03:15:38;19.70;99.90
14020;DHT22;7085;51.428;6.796;2022-08-03T03:18:06;19.80;99.90
14020;DHT22;7085;51.428;6.796;2022-08-03T03:20:35;19.90;99.90
14020;DHT22;7085;51.428;6.796;2022-08-03T03:23:05;19.90;99.90
14020;DHT22;7085;51.428;6.796;2022-08-03T03:25:33;19.90;99.90
14020;DHT22;7085;51.428;6.796;2022-08-03T03:28:03;19.80;99.90
14020;DHT22;7085;51.428;6.796;2022-08-03T03:30:30;19.80;99.90
14020;DHT22;7085;51.428;6.796;2022-08-03T03:32:57;19.70;99.90
14020;DHT22;7085;51.428;6.796;2022-08-03T03:35:25;19.60;99.90
14020;DHT22;7085;51.428;6.796;2022-08-03T03:40:20;19.70;99.90
14020;DHT22;7085;51.428;6.796;2022-08-03T03:42:47;19.70;99.90
14020;DHT22;7085;51.428;6.796;2022-08-03T03:45:16;19.70;99.90
14020;DHT22;7085;51.428;6.796;2022-08-03T03:50:11;19.60;99.90
14020;DHT22;7085;51.428;6.796;2022-08-03T03:55:06;19.60;99.90
14020;DHT22;7085;51.428;6.796;2022-08-03T03:57:33;19.60;99.90
14020;DHT22;7085;51.428;6.796;2022-08-03T04:02:29;19.60;99.90
14020;DHT22;7085;51.428;6.796;2022-08-03T04:04:56;19.60;99.90
14020;DHT22;7085;51.428;6.796;2022-08-03T04:07:47;19.60;99.90
14020;DHT22;7085;51.428;6.796;2022-08-03T04:10:35;19.60;99.90
14020;DHT22;7085;51.428;6.796;2022-08-03T04:13:22;19.50;99.90
14020;DHT22;7085;51.428;6.796;2022-08-03T04:15:51;19.40;99.90
14020;DHT22;7085;51.428;6.796;2022-08-03T04:18:20;19.50;99.90
14020;DHT22;7085;51.428;6.796;2022-08-03T04:20:49;19.50;99.90
14020;DHT22;7085;51.428;6.796;2022-08-03T04:23:18;19.60;99.90
14020;DHT22;7085;51.428;6.796;2022-08-03T04:25:48;19.60;99.90
14020;DHT22;7085;51.428;6.796;2022-08-03T04:28:16;19.60;99.90
14020;DHT22;7085;51.428;6.796;2022-08-03T04:30:46;19.70;99.90
14020;DHT22;7085;51.428;6.796;2022-08-03T04:33:16;19.80;99.90
14020;DHT22;7085;51.428;6.796;2022-08-03T04:35:46;19.70;99.90
14020;DHT22;7085;51.428;6.796;2022-08-03T04:38:14;19.80;99.90
14020;DHT22;7085;51.428;6.796;2022-08-03T04:40:45;19.80;99.90
14020;DHT22;7085;51.428;6.796;2022-08-03T04:43:15;19.70;99.90
14020;DHT22;7085;51.428;6.796;2022-08-03T04:45:46;19.80;99.90
14020;DHT22;7085;51.428;6.796;2022-08-03T04:50:41;19.80;99.90
14020;DHT22;7085;51.428;6.796;2022-08-03T04:53:09;19.80;99.90
14020;DHT22;7085;51.428;6.796;2022-08-03T04:58:03;19.90;99.90
14020;DHT22;7085;51.428;6.796;2022-08-03T05:05:25;20.00;99.90
14020;DHT22;7085;51.428;6.796;2022-08-03T05:10:20;20.00;99.90
14020;DHT22;7085;51.428;6.796;2022-08-03T05:15:16;20.10;99.90
14020;DHT22;7085;51.428;6.796;2022-08-03T05:17:43;20.20;99.90
14020;DHT22;7085;51.428;6.796;2022-08-03T05:20:10;20.20;99.90
14020;DHT22;7085;51.428;6.796;2022-08-03T05:25:06;20.40;99.90
14020;DHT22;7085;51.428;6.796;2022-08-03T05:27:34;20.40;99.90
14020;DHT22;7085;51.428;6.796;2022-08-03T05:30:01;20.50;99.90
14020;DHT22;7085;51.428;6.796;2022-08-03T05:32:28;20.40;99.90
14020;DHT22;7085;51.428;6.796;2022-08-03T05:34:55;20.60;99.90
14020;DHT22;7085;51.428;6.796;2022-08-03T05:44:44;20.80;99.90
14020;DHT22;7085;51.428;6.796;2022-08-03T05:47:11;20.90;99.90
14020;DHT22;7085;51.428;6.796;2022-08-03T05:49:37;21.00;99.90
14020;DHT22;7085;51.428;6.796;2022-08-03T05:54:31;21.00;99.90
14020;DHT22;7085;51.428;6.796;2022-08-03T05:56:58;21.10;99.90
14020;DHT22;7085;51.428;6.796;2022-08-03T06:01:53;21.30;99.90
14020;DHT22;7085;51.428;6.796;2022-08-03T06:04:20;21.40;99.90
14020;DHT22;7085;51.428;6.796;2022-08-03T06:09:15;21.40;99.90
14020;DHT22;7085;51.428;6.796;2022-08-03T06:11:42;21.40;99.90
14020;DHT22;7085;51.428;6.796;2022-08-03T06:14:09;21.50;99.90
14020;DHT22;7085;51.428;6.796;2022-08-03T06:19:04;21.70;99.90
14020;DHT22;7085;51.428;6.796;2022-08-03T06:21:30;21.70;99.90
14020;DHT22;7085;51.428;6.796;2022-08-03T06:26:26;21.80;99.90
14020;DHT22;7085;51.428;6.796;2022-08-03T06:28:53;21.80;99.90
14020;DHT22;7085;51.428;6.796;2022-08-03T06:31:21;21.90;99.90
14020;DHT22;7085;51.428;6.796;2022-08-03T06:33:48;22.00;99.90
14020;DHT22;7085;51.428;6.796;2022-08-03T06:36:16;22.10;99.90
14020;DHT22;7085;51.428;6.796;2022-08-03T06:38:43;22.20;99.90
14020;DHT22;7085;51.428;6.796;2022-08-03T06:41:09;22.30;99.90
14020;DHT22;7085;51.428;6.796;2022-08-03T06:46:04;22.50;99.90
14020;DHT22;7085;51.428;6.796;2022-08-03T06:48:31;22.60;99.90
14020;DHT22;7085;51.428;6.796;2022-08-03T06:50:57;22.70;99.90
14020;DHT22;7085;51.428;6.796;2022-08-03T06:53:25;22.80;99.90
14020;DHT22;7085;51.428;6.796;2022-08-03T06:58:19;22.90;99.90
14020;DHT22;7085;51.428;6.796;2022-08-03T07:00:46;23.00;99.90
14020;DHT22;7085;51.428;6.796;2022-08-03T07:05:41;22.90;99.90
14020;DHT22;7085;51.428;6.796;2022-08-03T07:08:07;23.00;99.90
14020;DHT22;7085;51.428;6.796;2022-08-03T07:10:35;23.10;99.90
14020;DHT22;7085;51.428;6.796;2022-08-03T07:13:02;23.20;99.90
14020;DHT22;7085;51.428;6.796;2022-08-03T07:17:56;23.40;99.90
14020;DHT22;7085;51.428;6.796;2022-08-03T07:20:23;23.40;99.90
14020;DHT22;7085;51.428;6.796;2022-08-03T07:27:46;23.80;99.90
14020;DHT22;7085;51.428;6.796;2022-08-03T07:30:14;24.00;99.90
14020;DHT22;7085;51.428;6.796;2022-08-03T07:32:41;24.00;99.90
14020;DHT22;7085;51.428;6.796;2022-08-03T07:35:09;24.20;99.90
14020;DHT22;7085;51.428;6.796;2022-08-03T07:37:36;24.30;99.90
14020;DHT22;7085;51.428;6.796;2022-08-03T07:40:04;24.40;99.90
14020;DHT22;7085;51.428;6.796;2022-08-03T07:44:59;24.50;99.90
14020;DHT22;7085;51.428;6.796;2022-08-03T07:47:28;24.60;99.90
14020;DHT22;7085;51.428;6.796;2022-08-03T07:49:55;24.80;99.90
14020;DHT22;7085;51.428;6.796;2022-08-03T07:55:07;24.90;99.90
14020;DHT22;7085;51.428;6.796;2022-08-03T08:00:05;25.10;99.90
14020;DHT22;7085;51.428;6.796;2022-08-03T08:02:33;25.20;99.90
14020;DHT22;7085;51.428;6.796;2022-08-03T08:05:00;25.30;99.90
14020;DHT22;7085;51.428;6.796;2022-08-03T08:07:26;25.40;99.90
14020;DHT22;7085;51.428;6.796;2022-08-03T08:09:53;25.50;99.90
14020;DHT22;7085;51.428;6.796;2022-08-03T08:12:20;25.60;99.90
14020;DHT22;7085;51.428;6.796;2022-08-03T08:17:15;25.70;99.00
14020;DHT22;7085;51.428;6.796;2022-08-03T08:19:41;25.70;99.90
14020;DHT22;7085;51.428;6.796;2022-08-03T08:22:08;25.90;91.40
14020;DHT22;7085;51.428;6.796;2022-08-03T08:27:02;26.20;79.00
14020;DHT22;7085;51.428;6.796;2022-08-03T08:31:56;26.60;55.80
14020;DHT22;7085;51.428;6.796;2022-08-03T08:34:24;26.70;48.00
14020;DHT22;7085;51.428;6.796;2022-08-03T08:41:44;27.10;25.40
14020;DHT22;7085;51.428;6.796;2022-08-03T08:44:11;27.00;14.20
14020;DHT22;7085;51.428;6.796;2022-08-03T08:46:38;27.10;16.80
14020;DHT22;7085;51.428;6.796;2022-08-03T08:49:08;27.20;10.60
14020;DHT22;7085;51.428;6.796;2022-08-03T08:51:39;27.60;7.50
14020;DHT22;7085;51.428;6.796;2022-08-03T08:54:06;28.20;1.00
14020;DHT22;7085;51.428;6.796;2022-08-03T08:56:35;28.90;1.00
14020;DHT22;7085;51.428;6.796;2022-08-03T08:59:03;29.60;1.00
14020;DHT22;7085;51.428;6.796;2022-08-03T09:01:30;30.30;1.00
14020;DHT22;7085;51.428;6.796;2022-08-03T09:06:24;31.10;1.00
14020;DHT22;7085;51.428;6.796;2022-08-03T09:08:52;31.50;1.00
14020;DHT22;7085;51.428;6.796;2022-08-03T09:11:21;32.20;1.00
14020;DHT22;7085;51.428;6.796;2022-08-03T09:13:48;32.60;1.00
14020;DHT22;7085;51.428;6.796;2022-08-03T09:16:16;32.40;1.00
14020;DHT22;7085;51.428;6.796;2022-08-03T09:18:46;32.50;1.00
14020;DHT22;7085;51.428;6.796;2022-08-03T09:21:18;32.70;1.00
14020;DHT22;7085;51.428;6.796;2022-08-03T09:23:47;32.20;1.00
14020;DHT22;7085;51.428;6.796;2022-08-03T09:26:24;32.50;1.00
14020;DHT22;7085;51.428;6.796;2022-08-03T09:28:55;33.50;1.00
14020;DHT22;7085;51.428;6.796;2022-08-03T09:31:32;33.30;1.00
14020;DHT22;7085;51.428;6.796;2022-08-03T09:34:01;33.60;1.00
14020;DHT22;7085;51.428;6.796;2022-08-03T09:36:34;33.40;1.00
14020;DHT22;7085;51.428;6.796;2022-08-03T09:39:02;33.70;1.00
14020;DHT22;7085;51.428;6.796;2022-08-03T09:41:31;33.90;1.00
14020;DHT22;7085;51.428;6.796;2022-08-03T09:43:58;34.70;1.00
14020;DHT22;7085;51.428;6.796;2022-08-03T09:49:08;35.80;1.00
14020;DHT22;7085;51.428;6.796;2022-08-03T09:54:03;35.10;1.00
14020;DHT22;7085;51.428;6.796;2022-08-03T09:56:40;34.50;1.00
14020;DHT22;7085;51.428;6.796;2022-08-03T09:59:07;34.40;1.00
14020;DHT22;7085;51.428;6.796;2022-08-03T10:01:35;35.20;1.00
14020;DHT22;7085;51.428;6.796;2022-08-03T10:04:04;35.30;1.00
14020;DHT22;7085;51.428;6.796;2022-08-03T10:09:06;36.80;1.00
14020;DHT22;7085;51.428;6.796;2022-08-03T10:11:33;34.50;1.00
14020;DHT22;7085;51.428;6.796;2022-08-03T10:14:03;38.00;1.00
14020;DHT22;7085;51.428;6.796;2022-08-03T10:16:33;37.20;1.00
14020;DHT22;7085;51.428;6.796;2022-08-03T10:21:32;36.60;1.00
14020;DHT22;7085;51.428;6.796;2022-08-03T10:24:02;37.30;1.00
14020;DHT22;7085;51.428;6.796;2022-08-03T10:26:31;37.00;1.00
14020;DHT22;7085;51.428;6.796;2022-08-03T10:28:59;37.70;1.00
14020;DHT22;7085;51.428;6.796;2022-08-03T10:31:34;37.60;1.00
14020;DHT22;7085;51.428;6.796;2022-08-03T10:34:01;37.30;1.00
14020;DHT22;7085;51.428;6.796;2022-08-03T10:36:30;37.30;1.00
14020;DHT22;7085;51.428;6.796;2022-08-03T10:38:59;37.70;1.00
14020;DHT22;7085;51.428;6.796;2022-08-03T10:41:35;38.10;1.00
14020;DHT22;7085;51.428;6.796;2022-08-03T10:44:07;37.10;1.00
14020;DHT22;7085;51.428;6.796;2022-08-03T10:46:38;37.20;1.00
14020;DHT22;7085;51.428;6.796;2022-08-03T10:49:05;36.60;1.00
14020;DHT22;7085;51.428;6.796;2022-08-03T10:51:33;37.30;1.00
14020;DHT22;7085;51.428;6.796;2022-08-03T10:56:37;37.70;1.00
14020;DHT22;7085;51.428;6.796;2022-08-03T10:59:56;38.20;1.00
14020;DHT22;7085;51.428;6.796;2022-08-03T11:05:32;38.30;1.00
14020;DHT22;7085;51.428;6.796;2022-08-03T11:08:22;38.50;1.00
14020;DHT22;7085;51.428;6.796;2022-08-03T11:10:51;38.90;1.00
14020;DHT22;7085;51.428;6.796;2022-08-03T11:13:20;38.40;1.00
14020;DHT22;7085;51.428;6.796;2022-08-03T11:15:49;38.60;1.00
14020;DHT22;7085;51.428;6.796;2022-08-03T11:18:17;38.00;1.00
14020;DHT22;7085;51.428;6.796;2022-08-03T11:20:46;38.30;1.00
14020;DHT22;7085;51.428;6.796;2022-08-03T11:23:14;38.80;1.00
14020;DHT22;7085;51.428;6.796;2022-08-03T11:26:12;38.90;1.00
14020;DHT22;7085;51.428;6.796;2022-08-03T11:28:40;38.80;1.00
14020;DHT22;7085;51.428;6.796;2022-08-03T11:31:45;39.10;1.00
14020;DHT22;7085;51.428;6.796;2022-08-03T11:34:14;39.10;1.00
14020;DHT22;7085;51.428;6.796;2022-08-03T11:37:18;38.60;1.00
14020;DHT22;7085;51.428;6.796;2022-08-03T11:39:47;38.70;1.00
14020;DHT22;7085;51.428;6.796;2022-08-03T11:42:37;38.70;1.00
14020;DHT22;7085;51.428;6.796;2022-08-03T11:45:06;39.30;1.00
14020;DHT22;7085;51.428;6.796;2022-08-03T11:47:37;40.00;1.00
14020;DHT22;7085;51.428;6.796;2022-08-03T11:50:06;40.10;1.00
14020;DHT22;7085;51.428;6.796;2022-08-03T11:52:35;39.60;1.00
14020;DHT22;7085;51.428;6.796;2022-08-03T11:55:11;39.30;1.00
14020;DHT22;7085;51.428;6.796;2022-08-03T12:00:26;39.50;1.00
14020;DHT22;7085;51.428;6.796;2022-08-03T12:03:00;40.30;1.00
14020;DHT22;7085;51.428;6.796;2022-08-03T12:05:43;40.30;1.00
14020;DHT22;7085;51.428;6.796;2022-08-03T12:08:13;39.30;1.00
14020;DHT22;7085;51.428;6.796;2022-08-03T12:10:45;39.60;1.00
14020;DHT22;7085;51.428;6.796;2022-08-03T12:15:40;39.10;1.00
14020;DHT22;7085;51.428;6.796;2022-08-03T12:18:14;38.20;1.00
14020;DHT22;7085;51.428;6.796;2022-08-03T12:20:43;37.80;1.00
14020;DHT22;7085;51.428;6.796;2022-08-03T12:23:11;38.10;1.00
14020;DHT22;7085;51.428;6.796;2022-08-03T12:25:39;38.40;1.00
14020;DHT22;7085;51.428;6.796;2022-08-03T12:28:09;34.60;1.00
14020;DHT22;7085;51.428;6.796;2022-08-03T12:30:38;38.10;1.00
14020;DHT22;7085;51.428;6.796;2022-08-03T12:33:28;38.50;1.00
14020;DHT22;7085;51.428;6.796;2022-08-03T12:36:04;40.00;1.00
14020;DHT22;7085;51.428;6.796;2022-08-03T12:41:00;40.60;1.00
14020;DHT22;7085;51.428;6.796;2022-08-03T12:46:12;40.50;1.00
14020;DHT22;7085;51.428;6.796;2022-08-03T12:49:02;40.60;1.00
14020;DHT22;7085;51.428;6.796;2022-08-03T12:51:33;41.60;1.00
14020;DHT22;7085;51.428;6.796;2022-08-03T12:58:54;41.10;1.00
14020;DHT22;7085;51.428;6.796;2022-08-03T13:01:22;40.90;1.00
14020;DHT22;7085;51.428;6.796;2022-08-03T13:03:51;40.60;1.00
14020;DHT22;7085;51.428;6.796;2022-08-03T13:06:20;41.20;1.00
14020;DHT22;7085;51.428;6.796;2022-08-03T13:08:49;42.20;1.00
14020;DHT22;7085;51.428;6.796;2022-08-03T13:11:18;42.40;1.00
14020;DHT22;7085;51.428;6.796;2022-08-03T13:13:45;41.90;1.00
14020;DHT22;7085;51.428;6.796;2022-08-03T13:18:39;41.60;1.00
14020;DHT22;7085;51.428;6.796;2022-08-03T13:21:06;41.50;1.00
14020;DHT22;7085;51.428;6.796;2022-08-03T13:26:01;41.80;1.00
14020;DHT22;7085;51.428;6.796;2022-08-03T13:35:49;42.70;1.00
14020;DHT22;7085;51.428;6.796;2022-08-03T13:43:11;42.60;1.00
14020;DHT22;7085;51.428;6.796;2022-08-03T14:00:22;40.50;1.00
14020;DHT22;7085;51.428;6.796;2022-08-03T14:02:50;40.10;1.00
14020;DHT22;7085;51.428;6.796;2022-08-03T14:07:44;41.00;1.00
14020;DHT22;7085;51.428;6.796;2022-08-03T14:10:12;40.80;1.00
14020;DHT22;7085;51.428;6.796;2022-08-03T14:15:07;39.60;1.00
14020;DHT22;7085;51.428;6.796;2022-08-03T14:17:35;39.40;1.00
14020;DHT22;7085;51.428;6.796;2022-08-03T14:34:49;40.40;1.00
14020;DHT22;7085;51.428;6.796;2022-08-03T14:37:16;39.50;1.00
14020;DHT22;7085;51.428;6.796;2022-08-03T14:39:42;39.40;1.00
14020;DHT22;7085;51.428;6.796;2022-08-03T14:47:05;41.10;1.00
14020;DHT22;7085;51.428;6.796;2022-08-03T14:52:00;40.00;1.00
14020;DHT22;7085;51.428;6.796;2022-08-03T14:54:27;40.90;1.00
14020;DHT22;7085;51.428;6.796;2022-08-03T14:56:55;41.20;1.00
14020;DHT22;7085;51.428;6.796;2022-08-03T14:59:22;41.70;1.00
14020;DHT22;7085;51.428;6.796;2022-08-03T15:01:49;42.40;1.00
14020;DHT22;7085;51.428;6.796;2022-08-03T15:09:11;42.00;1.00
14020;DHT22;7085;51.428;6.796;2022-08-03T15:18:59;41.80;1.00
14020;DHT22;7085;51.428;6.796;2022-08-03T15:26:21;41.50;1.00
14020;DHT22;7085;51.428;6.796;2022-08-03T15:31:19;41.10;1.00
14020;DHT22;7085;51.428;6.796;2022-08-03T15:38:41;39.90;1.00
14020;DHT22;7085;51.428;6.796;2022-08-03T15:43:36;39.70;1.00
14020;DHT22;7085;51.428;6.796;2022-08-03T15:48:30;39.60;1.00
14020;DHT22;7085;51.428;6.796;2022-08-03T15:58:18;38.40;1.00
14020;DHT22;7085;51.428;6.796;2022-08-03T16:00:46;38.70;1.00
14020;DHT22;7085;51.428;6.796;2022-08-03T16:03:13;39.10;1.00
14020;DHT22;7085;51.428;6.796;2022-08-03T16:10:34;37.60;1.00
14020;DHT22;7085;51.428;6.796;2022-08-03T16:17:56;35.60;1.00
14020;DHT22;7085;51.428;6.796;2022-08-03T16:25:17;34.60;1.00
14020;DHT22;7085;51.428;6.796;2022-08-03T16:27:44;34.40;1.00
14020;DHT22;7085;51.428;6.796;2022-08-03T16:30:13;34.10;1.00
14020;DHT22;7085;51.428;6.796;2022-08-03T16:32:41;34.10;1.00
14020;DHT22;7085;51.428;6.796;2022-08-03T16:35:11;34.30;1.00
14020;DHT22;7085;51.428;6.796;2022-08-03T16:37:37;34.40;1.00
14020;DHT22;7085;51.428;6.796;2022-08-03T16:40:06;34.40;1.00
14020;DHT22;7085;51.428;6.796;2022-08-03T16:45:02;34.40;1.00
14020;DHT22;7085;51.428;6.796;2022-08-03T16:52:25;34.10;1.00
14020;DHT22;7085;51.428;6.796;2022-08-03T16:57:20;33.60;1.00
14020;DHT22;7085;51.428;6.796;2022-08-03T17:02:19;33.20;1.00
14020;DHT22;7085;51.428;6.796;2022-08-03T17:07:14;33.20;1.00
14020;DHT22;7085;51.428;6.796;2022-08-03T17:09:43;33.10;1.00
14020;DHT22;7085;51.428;6.796;2022-08-03T17:12:11;33.00;1.00
14020;DHT22;7085;51.428;6.796;2022-08-03T17:14:38;32.90;1.00
14020;DHT22;7085;51.428;6.796;2022-08-03T17:17:10;33.10;1.00
14020;DHT22;7085;51.428;6.796;2022-08-03T17:22:09;33.20;1.00
14020;DHT22;7085;51.428;6.796;2022-08-03T17:24:38;33.20;1.00
14020;DHT22;7085;51.428;6.796;2022-08-03T17:27:08;33.20;1.00
14020;DHT22;7085;51.428;6.796;2022-08-03T17:29:38;33.10;1.00
14020;DHT22;7085;51.428;6.796;2022-08-03T17:34:32;32.70;1.00
14020;DHT22;7085;51.428;6.796;2022-08-03T17:36:59;32.50;1.00
14020;DHT22;7085;51.428;6.796;2022-08-03T17:41:53;32.50;1.00
14020;DHT22;7085;51.428;6.796;2022-08-03T17:44:26;32.50;1.00
14020;DHT22;7085;51.428;6.796;2022-08-03T17:46:53;32.50;1.00
14020;DHT22;7085;51.428;6.796;2022-08-03T17:51:50;32.40;1.00
14020;DHT22;7085;51.428;6.796;2022-08-03T17:54:23;32.40;1.00
14020;DHT22;7085;51.428;6.796;2022-08-03T17:56:59;32.30;1.00
14020;DHT22;7085;51.428;6.796;2022-08-03T17:59:38;32.20;1.00
14020;DHT22;7085;51.428;6.796;2022-08-03T18:02:20;32.10;1.00
14020;DHT22;7085;51.428;6.796;2022-08-03T18:05:06;31.80;1.00
14020;DHT22;7085;51.428;6.796;2022-08-03T18:07:37;31.80;1.00
14020;DHT22;7085;51.428;6.796;2022-08-03T18:10:06;31.80;1.00
14020;DHT22;7085;51.428;6.796;2022-08-03T18:12:41;31.70;1.00
14020;DHT22;7085;51.428;6.796;2022-08-03T18:15:12;31.60;1.00
14020;DHT22;7085;51.428;6.796;2022-08-03T18:17:41;31.50;1.00
14020;DHT22;7085;51.428;6.796;2022-08-03T18:20:09;31.50;1.00
14020;DHT22;7085;51.428;6.796;2022-08-03T18:22:35;31.40;1.00
14020;DHT22;7085;51.428;6.796;2022-08-03T18:25:03;31.40;1.00
14020;DHT22;7085;51.428;6.796;2022-08-03T18:27:30;31.30;1.00
14020;DHT22;7085;51.428;6.796;2022-08-03T18:29:59;31.30;1.00
14020;DHT22;7085;51.428;6.796;2022-08-03T18:32:29;31.30;1.00
14020;DHT22;7085;51.428;6.796;2022-08-03T18:34:55;31.10;1.00
14020;DHT22;7085;51.428;6.796;2022-08-03T18:37:23;31.00;1.00
14020;DHT22;7085;51.428;6.796;2022-08-03T18:47:22;30.30;1.00
14020;DHT22;7085;51.428;6.796;2022-08-03T18:50:05;30.10;1.00
14020;DHT22;7085;51.428;6.796;2022-08-03T18:52:39;30.10;1.00
14020;DHT22;7085;51.428;6.796;2022-08-03T18:55:08;30.00;1.00
14020;DHT22;7085;51.428;6.796;2022-08-03T18:57:41;29.90;1.00
14020;DHT22;7085;51.428;6.796;2022-08-03T19:00:10;29.80;1.00
14020;DHT22;7085;51.428;6.796;2022-08-03T19:02:45;29.70;1.00
14020;DHT22;7085;51.428;6.796;2022-08-03T19:05:17;29.50;1.00
14020;DHT22;7085;51.428;6.796;2022-08-03T19:07:53;29.40;1.00
14020;DHT22;7085;51.428;6.796;2022-08-03T19:10:24;29.30;1.00
14020;DHT22;7085;51.428;6.796;2022-08-03T19:12:53;29.20;1.00
14020;DHT22;7085;51.428;6.796;2022-08-03T19:15:21;29.20;1.00
14020;DHT22;7085;51.428;6.796;2022-08-03T19:20:22;29.00;1.00
14020;DHT22;7085;51.428;6.796;2022-08-03T19:22:50;28.90;1.00
14020;DHT22;7085;51.428;6.796;2022-08-03T19:27:45;28.60;1.00
14020;DHT22;7085;51.428;6.796;2022-08-03T19:35:28;28.30;11.60
14020;DHT22;7085;51.428;6.796;2022-08-03T19:40:22;28.00;21.30
14020;DHT22;7085;51.428;6.796;2022-08-03T19:42:52;27.90;24.90
14020;DHT22;7085;51.428;6.796;2022-08-03T19:45:21;27.80;28.90
14020;DHT22;7085;51.428;6.796;2022-08-03T19:47:55;27.70;33.90
14020;DHT22;7085;51.428;6.796;2022-08-03T19:50:24;27.60;38.40
14020;DHT22;7085;51.428;6.796;2022-08-03T19:52:53;27.50;42.20
14020;DHT22;7085;51.428;6.796;2022-08-03T19:55:22;27.60;40.20
14020;DHT22;7085;51.428;6.796;2022-08-03T19:57:52;27.50;46.00
14020;DHT22;7085;51.428;6.796;2022-08-03T20:02:49;27.40;62.10
14020;DHT22;7085;51.428;6.796;2022-08-03T20:05:16;27.20;82.30
14020;DHT22;7085;51.428;6.796;2022-08-03T20:07:43;27.10;81.20
14020;DHT22;7085;51.428;6.796;2022-08-03T20:10:13;27.00;89.80
14020;DHT22;7085;51.428;6.796;2022-08-03T20:15:08;26.60;92.30
14020;DHT22;7085;51.428;6.796;2022-08-03T20:17:36;26.80;83.80
14020;DHT22;7085;51.428;6.796;2022-08-03T20:20:04;26.70;93.50
14020;DHT22;7085;51.428;6.796;2022-08-03T20:22:35;26.70;93.70
14020;DHT22;7085;51.428;6.796;2022-08-03T20:25:06;26.70;93.50
14020;DHT22;7085;51.428;6.796;2022-08-03T20:27:38;26.70;92.30
14020;DHT22;7085;51.428;6.796;2022-08-03T20:30:09;26.60;92.30
14020;DHT22;7085;51.428;6.796;2022-08-03T20:32:37;26.60;96.50
14020;DHT22;7085;51.428;6.796;2022-08-03T20:35:06;26.60;98.30
14020;DHT22;7085;51.428;6.796;2022-08-03T20:42:27;26.20;99.90
14020;DHT22;7085;51.428;6.796;2022-08-03T20:44:56;26.20;99.90
14020;DHT22;7085;51.428;6.796;2022-08-03T20:54:45;26.10;99.90
14020;DHT22;7085;51.428;6.796;2022-08-03T20:57:13;26.00;99.90
14020;DHT22;7085;51.428;6.796;2022-08-03T20:59:41;25.90;99.90
14020;DHT22;7085;51.428;6.796;2022-08-03T21:02:11;25.90;99.90
14020;DHT22;7085;51.428;6.796;2022-08-03T21:04:42;25.80;99.90
14020;DHT22;7085;51.428;6.796;2022-08-03T21:07:13;25.80;99.90
14020;DHT22;7085;51.428;6.796;2022-08-03T21:09:47;25.90;99.90
14020;DHT22;7085;51.428;6.796;2022-08-03T21:12:19;25.80;99.90
14020;DHT22;7085;51.428;6.796;2022-08-03T21:14:51;25.90;99.90
14020;DHT22;7085;51.428;6.796;2022-08-03T21:17:25;25.80;99.90
14020;DHT22;7085;51.428;6.796;2022-08-03T21:19:54;25.80;99.90
14020;DHT22;7085;51.428;6.796;2022-08-03T21:22:21;25.80;99.90
14020;DHT22;7085;51.428;6.796;2022-08-03T21:24:52;25.80;99.90
14020;DHT22;7085;51.428;6.796;2022-08-03T21:27:21;25.80;99.90